Aérodrome :
LOGIN :

S'inscrire | Disclaimer

   EN    FR    IT 

 










Légende :    VFR   VFR Marginal   IFR   IFR Intensif   IFR Très Intensif
Visi : 
Plafond : 
>= 8 km
>= 3000ft
5 à 8 km
1000 à 3000 ft
1500m à 5 km
500 à 1000 ft
800 à 1500m
200 à 500 ft
< 800m
< 200 ft
Symboles :   Orages  Brouillard  Fortes neiges  Fortes précipitations  Vent > 20 kt
SIGMETs :   Divers  Orages  Givrage  Turbulence  Onde Orograph.  Cendres Volcan.






- Altitude de l'aérodrome : 1058 ft
- Code IATA : SCN


EDDR - Saarbrücken

DERNIER METAR :
  • 240150Z 26018KT 9999 FEW009 BKN016 01/M01 Q0994

METARs EXPIRÉS :
  • 240120Z 26018KT 9999 -SN FEW007 BKN010 01/M00 Q0994
  • 240050Z 26018KT 4500 -SN BKN008 01/M00 Q0993
  • 240020Z 27017KT 9999 -SNRA FEW003 BKN006 01/M00 Q0993
  • 232350Z 26015KT 9999 -SNRA FEW003 BKN006 02/01 Q0992
  • 232320Z 24013KT 9999 -SNRA FEW003 BKN006 02/01 Q0991

TAF TAF EDDR
Valide du 24 à 00h jusqu'au 25 à 00h UTC


232300Z 2400/2424 26015G25KT 8000 BKN012
TEMPO 2400/2406 4500 -RASN BKN008
PROB40
TEMPO 2400/2404 1500 SN BKN003
BECMG 2412/2414 23008KT BKN020
BECMG 2418/2420 17006KT 4000 -SN BKN008



MET'MAP, la Météo Aéronautique d'un coup d'oeil ! - Copyright ORBIFLY Décembre 2007 - Disclaimer

ORBIFLY MET'MAP TEAM :

Programmation & Développement : Alexandra Zaïnal
Sur une idée originale de : Baudouin d'Aumeries
Assistance à la programmation : Marc-Olivier Méhu
Soutien technique & logistique : Manuel Goepfert

Contact : metmap@orbifly.com




SOURCES & CREDITS :

   NOAA